sensor_id;sensor_type;location;lat;lon;timestamp;P1;durP1;ratioP1;P2;durP2;ratioP2
40955;SDS011;26687;48.254;11.454;2022-09-06T00:01:46;4.10;;;3.60;;
40955;SDS011;26687;48.254;11.454;2022-09-06T00:04:46;3.83;;;3.53;;
40955;SDS011;26687;48.254;11.454;2022-09-06T00:07:47;3.97;;;3.65;;
40955;SDS011;26687;48.254;11.454;2022-09-06T00:10:55;4.03;;;3.73;;
40955;SDS011;26687;48.254;11.454;2022-09-06T00:13:55;4.18;;;3.78;;
40955;SDS011;26687;48.254;11.454;2022-09-06T00:16:55;4.53;;;3.42;;
40955;SDS011;26687;48.254;11.454;2022-09-06T00:19:55;3.88;;;3.55;;
40955;SDS011;26687;48.254;11.454;2022-09-06T00:22:56;3.97;;;3.63;;
40955;SDS011;26687;48.254;11.454;2022-09-06T00:26:03;4.82;;;4.07;;
40955;SDS011;26687;48.254;11.454;2022-09-06T00:29:03;4.72;;;3.80;;
40955;SDS011;26687;48.254;11.454;2022-09-06T00:32:04;4.07;;;3.60;;
40955;SDS011;26687;48.254;11.454;2022-09-06T00:35:04;3.63;;;3.33;;
40955;SDS011;26687;48.254;11.454;2022-09-06T00:38:05;4.53;;;3.50;;
40955;SDS011;26687;48.254;11.454;2022-09-06T00:41:06;4.82;;;3.90;;
40955;SDS011;26687;48.254;11.454;2022-09-06T00:44:06;3.85;;;3.47;;
40955;SDS011;26687;48.254;11.454;2022-09-06T00:47:06;4.05;;;3.50;;
40955;SDS011;26687;48.254;11.454;2022-09-06T00:50:08;3.88;;;3.40;;
40955;SDS011;26687;48.254;11.454;2022-09-06T00:53:08;3.85;;;3.45;;
40955;SDS011;26687;48.254;11.454;2022-09-06T00:56:09;5.63;;;3.95;;
40955;SDS011;26687;48.254;11.454;2022-09-06T00:59:09;4.68;;;3.90;;
40955;SDS011;26687;48.254;11.454;2022-09-06T01:02:10;4.70;;;3.90;;
40955;SDS011;26687;48.254;11.454;2022-09-06T01:05:10;5.95;;;3.90;;
40955;SDS011;26687;48.254;11.454;2022-09-06T01:08:17;3.95;;;3.40;;
40955;SDS011;26687;48.254;11.454;2022-09-06T01:11:30;4.03;;;3.65;;
40955;SDS011;26687;48.254;11.454;2022-09-06T01:18:07;3.55;;;3.30;;
40955;SDS011;26687;48.254;11.454;2022-09-06T01:37:19;4.22;;;3.88;;
40955;SDS011;26687;48.254;11.454;2022-09-06T01:40:21;5.90;;;3.83;;
40955;SDS011;26687;48.254;11.454;2022-09-06T01:43:23;6.07;;;4.18;;
40955;SDS011;26687;48.254;11.454;2022-09-06T01:46:39;3.83;;;3.53;;
40955;SDS011;26687;48.254;11.454;2022-09-06T01:53:16;4.30;;;3.90;;
40955;SDS011;26687;48.254;11.454;2022-09-06T01:56:24;4.15;;;3.85;;
40955;SDS011;26687;48.254;11.454;2022-09-06T02:02:39;3.92;;;3.63;;
40955;SDS011;26687;48.254;11.454;2022-09-06T02:05:49;5.50;;;3.90;;
40955;SDS011;26687;48.254;11.454;2022-09-06T02:08:52;5.60;;;4.55;;
40955;SDS011;26687;48.254;11.454;2022-09-06T02:11:54;6.93;;;5.00;;
40955;SDS011;26687;48.254;11.454;2022-09-06T02:15:03;6.07;;;4.78;;
40955;SDS011;26687;48.254;11.454;2022-09-06T02:18:05;4.70;;;4.30;;
40955;SDS011;26687;48.254;11.454;2022-09-06T02:21:08;4.82;;;4.32;;
40955;SDS011;26687;48.254;11.454;2022-09-06T02:24:11;4.20;;;3.85;;
40955;SDS011;26687;48.254;11.454;2022-09-06T02:27:13;4.00;;;3.60;;
40955;SDS011;26687;48.254;11.454;2022-09-06T02:30:13;4.70;;;4.22;;
40955;SDS011;26687;48.254;11.454;2022-09-06T02:33:19;4.27;;;3.97;;
40955;SDS011;26687;48.254;11.454;2022-09-06T02:36:20;4.88;;;4.38;;
40955;SDS011;26687;48.254;11.454;2022-09-06T02:39:20;4.40;;;4.00;;
40955;SDS011;26687;48.254;11.454;2022-09-06T02:42:21;4.33;;;4.00;;
40955;SDS011;26687;48.254;11.454;2022-09-06T02:45:21;4.53;;;3.60;;
40955;SDS011;26687;48.254;11.454;2022-09-06T02:48:21;3.83;;;3.55;;
40955;SDS011;26687;48.254;11.454;2022-09-06T02:51:22;3.97;;;3.53;;
40955;SDS011;26687;48.254;11.454;2022-09-06T02:54:22;3.75;;;3.45;;
40955;SDS011;26687;48.254;11.454;2022-09-06T02:57:22;5.25;;;3.55;;
40955;SDS011;26687;48.254;11.454;2022-09-06T03:00:23;3.60;;;3.30;;
40955;SDS011;26687;48.254;11.454;2022-09-06T03:03:23;4.35;;;3.95;;
40955;SDS011;26687;48.254;11.454;2022-09-06T03:06:24;3.63;;;3.40;;
40955;SDS011;26687;48.254;11.454;2022-09-06T03:09:24;3.58;;;3.35;;
40955;SDS011;26687;48.254;11.454;2022-09-06T03:12:24;4.18;;;3.75;;
40955;SDS011;26687;48.254;11.454;2022-09-06T03:15:24;4.63;;;4.22;;
40955;SDS011;26687;48.254;11.454;2022-09-06T03:18:25;4.20;;;3.70;;
40955;SDS011;26687;48.254;11.454;2022-09-06T03:21:26;4.25;;;3.72;;
40955;SDS011;26687;48.254;11.454;2022-09-06T03:24:26;4.35;;;3.75;;
40955;SDS011;26687;48.254;11.454;2022-09-06T03:27:26;5.00;;;4.35;;
40955;SDS011;26687;48.254;11.454;2022-09-06T03:30:26;4.63;;;4.07;;
40955;SDS011;26687;48.254;11.454;2022-09-06T03:33:26;4.60;;;4.17;;
40955;SDS011;26687;48.254;11.454;2022-09-06T03:36:27;4.47;;;4.07;;
40955;SDS011;26687;48.254;11.454;2022-09-06T03:39:27;4.30;;;3.83;;
40955;SDS011;26687;48.254;11.454;2022-09-06T03:42:27;4.50;;;4.05;;
40955;SDS011;26687;48.254;11.454;2022-09-06T03:45:27;4.43;;;3.90;;
40955;SDS011;26687;48.254;11.454;2022-09-06T03:48:27;4.90;;;4.50;;
40955;SDS011;26687;48.254;11.454;2022-09-06T03:51:28;4.43;;;3.80;;
40955;SDS011;26687;48.254;11.454;2022-09-06T03:54:28;5.70;;;3.30;;
40955;SDS011;26687;48.254;11.454;2022-09-06T03:57:28;6.87;;;4.03;;
40955;SDS011;26687;48.254;11.454;2022-09-06T04:00:29;4.33;;;3.87;;
40955;SDS011;26687;48.254;11.454;2022-09-06T04:03:29;4.70;;;4.30;;
40955;SDS011;26687;48.254;11.454;2022-09-06T04:06:29;5.38;;;3.88;;
40955;SDS011;26687;48.254;11.454;2022-09-06T04:09:29;4.85;;;3.78;;
40955;SDS011;26687;48.254;11.454;2022-09-06T04:12:29;4.13;;;3.83;;
40955;SDS011;26687;48.254;11.454;2022-09-06T04:15:30;5.27;;;3.90;;
40955;SDS011;26687;48.254;11.454;2022-09-06T04:18:30;7.17;;;3.80;;
40955;SDS011;26687;48.254;11.454;2022-09-06T04:21:30;4.25;;;3.85;;
40955;SDS011;26687;48.254;11.454;2022-09-06T04:24:31;4.27;;;3.97;;
40955;SDS011;26687;48.254;11.454;2022-09-06T04:27:31;4.40;;;3.60;;
40955;SDS011;26687;48.254;11.454;2022-09-06T04:30:31;4.40;;;3.97;;
40955;SDS011;26687;48.254;11.454;2022-09-06T04:33:32;4.10;;;3.80;;
40955;SDS011;26687;48.254;11.454;2022-09-06T04:36:32;3.72;;;3.42;;
40955;SDS011;26687;48.254;11.454;2022-09-06T04:39:32;4.83;;;3.67;;
40955;SDS011;26687;48.254;11.454;2022-09-06T04:42:33;4.45;;;4.07;;
40955;SDS011;26687;48.254;11.454;2022-09-06T04:45:33;5.03;;;3.90;;
40955;SDS011;26687;48.254;11.454;2022-09-06T04:48:33;4.30;;;3.65;;
40955;SDS011;26687;48.254;11.454;2022-09-06T04:51:33;4.43;;;4.03;;
40955;SDS011;26687;48.254;11.454;2022-09-06T04:54:33;4.53;;;4.13;;
40955;SDS011;26687;48.254;11.454;2022-09-06T04:57:34;4.18;;;3.78;;
40955;SDS011;26687;48.254;11.454;2022-09-06T05:00:34;4.97;;;4.30;;
40955;SDS011;26687;48.254;11.454;2022-09-06T05:03:35;4.40;;;4.07;;
40955;SDS011;26687;48.254;11.454;2022-09-06T05:06:35;4.93;;;3.77;;
40955;SDS011;26687;48.254;11.454;2022-09-06T05:09:36;4.93;;;4.00;;
40955;SDS011;26687;48.254;11.454;2022-09-06T05:12:36;5.28;;;4.15;;
40955;SDS011;26687;48.254;11.454;2022-09-06T05:15:36;4.80;;;3.60;;
40955;SDS011;26687;48.254;11.454;2022-09-06T05:18:36;4.97;;;4.00;;
40955;SDS011;26687;48.254;11.454;2022-09-06T05:21:37;4.45;;;4.05;;
40955;SDS011;26687;48.254;11.454;2022-09-06T05:24:37;4.60;;;3.83;;
40955;SDS011;26687;48.254;11.454;2022-09-06T05:27:37;5.45;;;3.80;;
40955;SDS011;26687;48.254;11.454;2022-09-06T05:30:37;8.70;;;4.30;;
40955;SDS011;26687;48.254;11.454;2022-09-06T05:33:37;5.63;;;4.40;;
40955;SDS011;26687;48.254;11.454;2022-09-06T05:36:38;4.25;;;3.85;;
40955;SDS011;26687;48.254;11.454;2022-09-06T05:39:38;5.97;;;4.05;;
40955;SDS011;26687;48.254;11.454;2022-09-06T05:42:39;5.73;;;4.67;;
40955;SDS011;26687;48.254;11.454;2022-09-06T05:45:40;7.18;;;5.63;;
40955;SDS011;26687;48.254;11.454;2022-09-06T05:48:40;5.60;;;5.07;;
40955;SDS011;26687;48.254;11.454;2022-09-06T05:51:40;5.10;;;4.60;;
40955;SDS011;26687;48.254;11.454;2022-09-06T05:54:40;5.47;;;4.20;;
40955;SDS011;26687;48.254;11.454;2022-09-06T05:57:40;4.45;;;4.05;;
40955;SDS011;26687;48.254;11.454;2022-09-06T06:00:41;4.43;;;4.03;;
40955;SDS011;26687;48.254;11.454;2022-09-06T06:03:41;4.40;;;3.78;;
40955;SDS011;26687;48.254;11.454;2022-09-06T06:06:42;5.03;;;4.10;;
40955;SDS011;26687;48.254;11.454;2022-09-06T06:09:42;5.80;;;4.60;;
40955;SDS011;26687;48.254;11.454;2022-09-06T06:12:42;4.07;;;3.78;;
40955;SDS011;26687;48.254;11.454;2022-09-06T06:15:42;5.23;;;3.90;;
40955;SDS011;26687;48.254;11.454;2022-09-06T06:18:43;4.47;;;4.07;;
40955;SDS011;26687;48.254;11.454;2022-09-06T06:21:45;4.13;;;3.55;;
40955;SDS011;26687;48.254;11.454;2022-09-06T06:24:46;5.80;;;4.10;;
40955;SDS011;26687;48.254;11.454;2022-09-06T06:27:46;4.55;;;4.05;;
40955;SDS011;26687;48.254;11.454;2022-09-06T06:30:46;4.65;;;3.83;;
40955;SDS011;26687;48.254;11.454;2022-09-06T06:33:46;4.53;;;3.75;;
40955;SDS011;26687;48.254;11.454;2022-09-06T06:36:47;4.15;;;3.58;;
40955;SDS011;26687;48.254;11.454;2022-09-06T06:39:47;4.28;;;3.90;;
40955;SDS011;26687;48.254;11.454;2022-09-06T06:42:47;4.20;;;3.80;;
40955;SDS011;26687;48.254;11.454;2022-09-06T06:45:48;3.80;;;3.50;;
40955;SDS011;26687;48.254;11.454;2022-09-06T06:48:48;4.53;;;3.55;;
40955;SDS011;26687;48.254;11.454;2022-09-06T06:51:49;3.50;;;3.20;;
40955;SDS011;26687;48.254;11.454;2022-09-06T06:54:49;3.38;;;3.13;;
40955;SDS011;26687;48.254;11.454;2022-09-06T06:57:49;3.70;;;3.40;;
40955;SDS011;26687;48.254;11.454;2022-09-06T07:00:49;4.85;;;3.25;;
40955;SDS011;26687;48.254;11.454;2022-09-06T07:03:49;4.13;;;3.33;;
40955;SDS011;26687;48.254;11.454;2022-09-06T07:06:51;3.50;;;3.20;;
40955;SDS011;26687;48.254;11.454;2022-09-06T07:09:51;3.80;;;3.17;;
40955;SDS011;26687;48.254;11.454;2022-09-06T07:12:52;4.67;;;3.40;;
40955;SDS011;26687;48.254;11.454;2022-09-06T07:16:04;3.13;;;2.92;;
40955;SDS011;26687;48.254;11.454;2022-09-06T07:19:04;5.30;;;2.72;;
40955;SDS011;26687;48.254;11.454;2022-09-06T07:22:05;4.50;;;2.90;;
40955;SDS011;26687;48.254;11.454;2022-09-06T07:25:05;2.97;;;2.67;;
40955;SDS011;26687;48.254;11.454;2022-09-06T07:28:05;3.90;;;2.38;;
40955;SDS011;26687;48.254;11.454;2022-09-06T07:31:06;3.20;;;2.60;;
40955;SDS011;26687;48.254;11.454;2022-09-06T07:34:06;2.58;;;2.33;;
40955;SDS011;26687;48.254;11.454;2022-09-06T07:37:06;4.28;;;2.60;;
40955;SDS011;26687;48.254;11.454;2022-09-06T07:40:06;3.88;;;2.20;;
40955;SDS011;26687;48.254;11.454;2022-09-06T07:43:07;4.53;;;2.50;;
40955;SDS011;26687;48.254;11.454;2022-09-06T07:49:07;3.45;;;2.20;;
40955;SDS011;26687;48.254;11.454;2022-09-06T07:52:07;2.13;;;1.92;;
40955;SDS011;26687;48.254;11.454;2022-09-06T07:55:07;3.47;;;2.20;;
40955;SDS011;26687;48.254;11.454;2022-09-06T07:58:08;4.05;;;2.33;;
40955;SDS011;26687;48.254;11.454;2022-09-06T08:04:28;4.18;;;2.35;;
40955;SDS011;26687;48.254;11.454;2022-09-06T08:07:29;4.25;;;2.30;;
40955;SDS011;26687;48.254;11.454;2022-09-06T08:10:29;3.28;;;2.38;;
40955;SDS011;26687;48.254;11.454;2022-09-06T08:13:30;2.70;;;2.30;;
40955;SDS011;26687;48.254;11.454;2022-09-06T08:16:30;3.40;;;2.40;;
40955;SDS011;26687;48.254;11.454;2022-09-06T08:19:30;2.88;;;1.98;;
40955;SDS011;26687;48.254;11.454;2022-09-06T08:22:31;4.30;;;2.10;;
40955;SDS011;26687;48.254;11.454;2022-09-06T08:25:32;3.80;;;2.25;;
40955;SDS011;26687;48.254;11.454;2022-09-06T08:28:32;3.85;;;2.00;;
40955;SDS011;26687;48.254;11.454;2022-09-06T08:31:33;3.50;;;2.00;;
40955;SDS011;26687;48.254;11.454;2022-09-06T08:34:33;2.78;;;1.90;;
40955;SDS011;26687;48.254;11.454;2022-09-06T08:37:34;3.10;;;1.80;;
40955;SDS011;26687;48.254;11.454;2022-09-06T08:40:34;3.67;;;2.00;;
40955;SDS011;26687;48.254;11.454;2022-09-06T08:43:34;2.40;;;1.77;;
40955;SDS011;26687;48.254;11.454;2022-09-06T08:49:36;3.38;;;1.80;;
40955;SDS011;26687;48.254;11.454;2022-09-06T08:55:58;3.63;;;1.88;;
40955;SDS011;26687;48.254;11.454;2022-09-06T08:59:05;2.45;;;1.60;;
40955;SDS011;26687;48.254;11.454;2022-09-06T09:02:13;2.80;;;1.75;;
40955;SDS011;26687;48.254;11.454;2022-09-06T09:05:28;2.90;;;1.50;;
40955;SDS011;26687;48.254;11.454;2022-09-06T09:11:40;2.83;;;1.40;;
40955;SDS011;26687;48.254;11.454;2022-09-06T09:14:41;2.47;;;1.70;;
40955;SDS011;26687;48.254;11.454;2022-09-06T09:17:43;3.90;;;1.80;;
40955;SDS011;26687;48.254;11.454;2022-09-06T09:20:44;3.55;;;1.00;;
40955;SDS011;26687;48.254;11.454;2022-09-06T09:23:44;4.68;;;1.02;;
40955;SDS011;26687;48.254;11.454;2022-09-06T09:32:52;2.83;;;0.93;;
40955;SDS011;26687;48.254;11.454;2022-09-06T09:35:53;2.97;;;1.03;;
40955;SDS011;26687;48.254;11.454;2022-09-06T09:38:54;1.90;;;1.02;;
40955;SDS011;26687;48.254;11.454;2022-09-06T09:41:55;1.77;;;1.10;;
40955;SDS011;26687;48.254;11.454;2022-09-06T09:44:56;4.75;;;0.90;;
40955;SDS011;26687;48.254;11.454;2022-09-06T09:47:56;3.08;;;1.10;;
40955;SDS011;26687;48.254;11.454;2022-09-06T09:51:21;1.88;;;0.80;;
40955;SDS011;26687;48.254;11.454;2022-09-06T09:54:29;1.10;;;0.68;;
40955;SDS011;26687;48.254;11.454;2022-09-06T09:57:30;1.42;;;0.77;;
40955;SDS011;26687;48.254;11.454;2022-09-06T10:00:31;2.70;;;0.75;;
40955;SDS011;26687;48.254;11.454;2022-09-06T10:03:32;2.95;;;0.85;;
40955;SDS011;26687;48.254;11.454;2022-09-06T10:06:32;1.53;;;0.97;;
40955;SDS011;26687;48.254;11.454;2022-09-06T10:09:34;1.30;;;1.15;;
40955;SDS011;26687;48.254;11.454;2022-09-06T10:12:35;1.23;;;0.55;;
40955;SDS011;26687;48.254;11.454;2022-09-06T10:18:41;3.35;;;0.80;;
40955;SDS011;26687;48.254;11.454;2022-09-06T10:21:41;2.90;;;1.08;;
40955;SDS011;26687;48.254;11.454;2022-09-06T10:24:49;3.45;;;1.15;;
40955;SDS011;26687;48.254;11.454;2022-09-06T10:34:16;1.52;;;1.00;;
40955;SDS011;26687;48.254;11.454;2022-09-06T10:37:27;1.88;;;1.13;;
40955;SDS011;26687;48.254;11.454;2022-09-06T10:40:33;1.52;;;1.10;;
40955;SDS011;26687;48.254;11.454;2022-09-06T10:43:40;9.30;;;3.58;;
40955;SDS011;26687;48.254;11.454;2022-09-06T10:46:43;1.65;;;1.23;;
40955;SDS011;26687;48.254;11.454;2022-09-06T10:49:45;3.90;;;1.67;;
40955;SDS011;26687;48.254;11.454;2022-09-06T10:52:47;5.70;;;3.10;;
40955;SDS011;26687;48.254;11.454;2022-09-06T10:56:01;12.35;;;7.80;;
40955;SDS011;26687;48.254;11.454;2022-09-06T10:59:06;2.33;;;1.00;;
40955;SDS011;26687;48.254;11.454;2022-09-06T11:02:14;2.05;;;0.73;;
40955;SDS011;26687;48.254;11.454;2022-09-06T11:05:25;1.98;;;0.95;;
40955;SDS011;26687;48.254;11.454;2022-09-06T11:11:49;2.85;;;1.15;;
40955;SDS011;26687;48.254;11.454;2022-09-06T11:14:53;6.22;;;1.20;;
40955;SDS011;26687;48.254;11.454;2022-09-06T11:17:56;2.38;;;1.20;;
40955;SDS011;26687;48.254;11.454;2022-09-06T11:21:08;3.80;;;1.23;;
40955;SDS011;26687;48.254;11.454;2022-09-06T11:24:14;5.45;;;1.60;;
40955;SDS011;26687;48.254;11.454;2022-09-06T11:30:20;6.22;;;1.58;;
40955;SDS011;26687;48.254;11.454;2022-09-06T11:33:28;4.43;;;1.40;;
40955;SDS011;26687;48.254;11.454;2022-09-06T11:36:35;2.40;;;1.17;;
40955;SDS011;26687;48.254;11.454;2022-09-06T11:39:37;7.00;;;1.70;;
40955;SDS011;26687;48.254;11.454;2022-09-06T11:43:40;9.32;;;2.53;;
40955;SDS011;26687;48.254;11.454;2022-09-06T11:46:02;5.70;;;1.30;;
40955;SDS011;26687;48.254;11.454;2022-09-06T11:52:47;5.67;;;1.43;;
40955;SDS011;26687;48.254;11.454;2022-09-06T11:55:47;3.20;;;1.67;;
40955;SDS011;26687;48.254;11.454;2022-09-06T11:58:52;5.43;;;1.58;;
40955;SDS011;26687;48.254;11.454;2022-09-06T12:08:13;4.25;;;1.33;;
40955;SDS011;26687;48.254;11.454;2022-09-06T12:14:41;5.32;;;1.88;;
40955;SDS011;26687;48.254;11.454;2022-09-06T12:17:45;4.80;;;1.55;;
40955;SDS011;26687;48.254;11.454;2022-09-06T12:23:46;4.20;;;1.55;;
40955;SDS011;26687;48.254;11.454;2022-09-06T12:26:50;7.78;;;1.48;;
40955;SDS011;26687;48.254;11.454;2022-09-06T12:39:14;5.80;;;1.60;;
40955;SDS011;26687;48.254;11.454;2022-09-06T12:42:14;3.77;;;1.70;;
40955;SDS011;26687;48.254;11.454;2022-09-06T12:45:15;6.95;;;1.80;;
40955;SDS011;26687;48.254;11.454;2022-09-06T12:48:25;5.88;;;1.67;;
40955;SDS011;26687;48.254;11.454;2022-09-06T12:51:26;9.65;;;2.33;;
40955;SDS011;26687;48.254;11.454;2022-09-06T12:54:26;5.83;;;2.10;;
40955;SDS011;26687;48.254;11.454;2022-09-06T12:57:27;10.20;;;2.08;;
40955;SDS011;26687;48.254;11.454;2022-09-06T13:00:39;8.50;;;2.20;;
40955;SDS011;26687;48.254;11.454;2022-09-06T13:03:44;5.15;;;1.92;;
40955;SDS011;26687;48.254;11.454;2022-09-06T13:06:44;6.07;;;2.00;;
40955;SDS011;26687;48.254;11.454;2022-09-06T13:09:46;9.35;;;2.08;;
40955;SDS011;26687;48.254;11.454;2022-09-06T13:12:48;8.77;;;2.00;;
40955;SDS011;26687;48.254;11.454;2022-09-06T13:15:49;5.25;;;2.03;;
40955;SDS011;26687;48.254;11.454;2022-09-06T13:18:49;7.55;;;2.00;;
40955;SDS011;26687;48.254;11.454;2022-09-06T13:21:50;3.90;;;1.70;;
40955;SDS011;26687;48.254;11.454;2022-09-06T13:24:53;5.45;;;1.70;;
40955;SDS011;26687;48.254;11.454;2022-09-06T13:27:55;9.75;;;2.15;;
40955;SDS011;26687;48.254;11.454;2022-09-06T13:31:17;5.65;;;1.65;;
40955;SDS011;26687;48.254;11.454;2022-09-06T13:34:19;5.78;;;2.05;;
40955;SDS011;26687;48.254;11.454;2022-09-06T13:37:19;6.90;;;2.05;;
40955;SDS011;26687;48.254;11.454;2022-09-06T13:40:35;7.35;;;1.98;;
40955;SDS011;26687;48.254;11.454;2022-09-06T13:43:42;4.72;;;1.80;;
40955;SDS011;26687;48.254;11.454;2022-09-06T13:46:43;4.70;;;1.83;;
40955;SDS011;26687;48.254;11.454;2022-09-06T13:49:44;5.78;;;1.73;;
40955;SDS011;26687;48.254;11.454;2022-09-06T13:52:44;5.83;;;1.53;;
40955;SDS011;26687;48.254;11.454;2022-09-06T13:55:44;5.93;;;2.00;;
40955;SDS011;26687;48.254;11.454;2022-09-06T13:58:44;4.43;;;1.70;;
40955;SDS011;26687;48.254;11.454;2022-09-06T14:01:45;5.10;;;2.08;;
40955;SDS011;26687;48.254;11.454;2022-09-06T14:04:46;7.68;;;2.47;;
40955;SDS011;26687;48.254;11.454;2022-09-06T14:07:46;6.43;;;2.00;;
40955;SDS011;26687;48.254;11.454;2022-09-06T14:10:46;6.88;;;2.08;;
40955;SDS011;26687;48.254;11.454;2022-09-06T14:13:47;7.72;;;1.80;;
40955;SDS011;26687;48.254;11.454;2022-09-06T14:16:47;6.73;;;2.10;;
40955;SDS011;26687;48.254;11.454;2022-09-06T14:19:47;7.57;;;2.13;;
40955;SDS011;26687;48.254;11.454;2022-09-06T14:22:49;8.80;;;2.47;;
40955;SDS011;26687;48.254;11.454;2022-09-06T14:25:53;9.95;;;2.38;;
40955;SDS011;26687;48.254;11.454;2022-09-06T14:28:53;9.75;;;2.10;;
40955;SDS011;26687;48.254;11.454;2022-09-06T14:31:54;7.33;;;2.00;;
40955;SDS011;26687;48.254;11.454;2022-09-06T14:34:54;6.15;;;1.80;;
40955;SDS011;26687;48.254;11.454;2022-09-06T14:37:54;6.73;;;2.30;;
40955;SDS011;26687;48.254;11.454;2022-09-06T14:41:00;5.82;;;1.83;;
40955;SDS011;26687;48.254;11.454;2022-09-06T14:44:01;6.55;;;1.88;;
40955;SDS011;26687;48.254;11.454;2022-09-06T14:47:01;3.58;;;1.90;;
40955;SDS011;26687;48.254;11.454;2022-09-06T14:50:02;6.82;;;1.92;;
40955;SDS011;26687;48.254;11.454;2022-09-06T14:53:02;6.88;;;1.83;;
40955;SDS011;26687;48.254;11.454;2022-09-06T14:56:03;6.20;;;2.00;;
40955;SDS011;26687;48.254;11.454;2022-09-06T14:59:03;5.53;;;1.63;;
40955;SDS011;26687;48.254;11.454;2022-09-06T15:02:03;4.28;;;2.03;;
40955;SDS011;26687;48.254;11.454;2022-09-06T15:05:04;4.97;;;1.97;;
40955;SDS011;26687;48.254;11.454;2022-09-06T15:08:04;8.07;;;2.10;;
40955;SDS011;26687;48.254;11.454;2022-09-06T15:11:05;8.18;;;1.88;;
40955;SDS011;26687;48.254;11.454;2022-09-06T15:14:07;4.68;;;1.83;;
40955;SDS011;26687;48.254;11.454;2022-09-06T15:17:10;3.72;;;1.80;;
40955;SDS011;26687;48.254;11.454;2022-09-06T15:20:11;7.60;;;1.75;;
40955;SDS011;26687;48.254;11.454;2022-09-06T15:23:11;2.97;;;1.47;;
40955;SDS011;26687;48.254;11.454;2022-09-06T15:26:12;4.25;;;1.70;;
40955;SDS011;26687;48.254;11.454;2022-09-06T15:29:13;3.78;;;1.48;;
40955;SDS011;26687;48.254;11.454;2022-09-06T15:32:13;5.55;;;1.48;;
40955;SDS011;26687;48.254;11.454;2022-09-06T15:35:13;3.00;;;1.50;;
40955;SDS011;26687;48.254;11.454;2022-09-06T15:38:14;6.03;;;1.70;;
40955;SDS011;26687;48.254;11.454;2022-09-06T15:41:22;7.18;;;1.63;;
40955;SDS011;26687;48.254;11.454;2022-09-06T15:44:23;3.47;;;1.88;;
40955;SDS011;26687;48.254;11.454;2022-09-06T15:47:23;4.72;;;1.60;;
40955;SDS011;26687;48.254;11.454;2022-09-06T15:50:23;5.30;;;1.77;;
40955;SDS011;26687;48.254;11.454;2022-09-06T15:53:23;6.65;;;1.75;;
40955;SDS011;26687;48.254;11.454;2022-09-06T15:56:24;4.13;;;1.80;;
40955;SDS011;26687;48.254;11.454;2022-09-06T15:59:24;4.03;;;1.90;;
40955;SDS011;26687;48.254;11.454;2022-09-06T16:02:24;2.57;;;1.70;;
40955;SDS011;26687;48.254;11.454;2022-09-06T16:05:24;7.57;;;1.80;;
40955;SDS011;26687;48.254;11.454;2022-09-06T16:08:24;5.10;;;2.13;;
40955;SDS011;26687;48.254;11.454;2022-09-06T16:11:26;6.63;;;2.03;;
40955;SDS011;26687;48.254;11.454;2022-09-06T16:14:26;4.07;;;2.20;;
40955;SDS011;26687;48.254;11.454;2022-09-06T16:17:27;9.13;;;2.30;;
40955;SDS011;26687;48.254;11.454;2022-09-06T16:20:30;6.57;;;2.50;;
40955;SDS011;26687;48.254;11.454;2022-09-06T16:23:30;7.82;;;2.30;;
40955;SDS011;26687;48.254;11.454;2022-09-06T16:26:32;4.20;;;1.65;;
40955;SDS011;26687;48.254;11.454;2022-09-06T16:29:32;4.93;;;1.98;;
40955;SDS011;26687;48.254;11.454;2022-09-06T16:32:33;6.10;;;2.03;;
40955;SDS011;26687;48.254;11.454;2022-09-06T16:35:36;5.47;;;1.65;;
40955;SDS011;26687;48.254;11.454;2022-09-06T16:38:38;7.00;;;2.22;;
40955;SDS011;26687;48.254;11.454;2022-09-06T16:41:40;6.30;;;3.35;;
40955;SDS011;26687;48.254;11.454;2022-09-06T16:44:41;7.90;;;5.60;;
40955;SDS011;26687;48.254;11.454;2022-09-06T16:47:41;6.32;;;3.22;;
40955;SDS011;26687;48.254;11.454;2022-09-06T16:50:41;3.83;;;2.40;;
40955;SDS011;26687;48.254;11.454;2022-09-06T16:53:43;7.43;;;3.78;;
40955;SDS011;26687;48.254;11.454;2022-09-06T16:56:44;6.50;;;4.22;;
40955;SDS011;26687;48.254;11.454;2022-09-06T16:59:44;5.47;;;2.35;;
40955;SDS011;26687;48.254;11.454;2022-09-06T17:02:44;9.03;;;2.97;;
40955;SDS011;26687;48.254;11.454;2022-09-06T17:05:50;12.75;;;6.43;;
40955;SDS011;26687;48.254;11.454;2022-09-06T17:08:50;10.85;;;6.85;;
40955;SDS011;26687;48.254;11.454;2022-09-06T17:11:51;10.15;;;6.70;;
40955;SDS011;26687;48.254;11.454;2022-09-06T17:14:51;11.63;;;6.83;;
40955;SDS011;26687;48.254;11.454;2022-09-06T17:17:51;5.97;;;3.85;;
40955;SDS011;26687;48.254;11.454;2022-09-06T17:20:55;8.07;;;2.80;;
40955;SDS011;26687;48.254;11.454;2022-09-06T17:23:56;7.93;;;4.13;;
40955;SDS011;26687;48.254;11.454;2022-09-06T17:27:02;4.93;;;2.85;;
40955;SDS011;26687;48.254;11.454;2022-09-06T17:30:03;6.07;;;2.47;;
40955;SDS011;26687;48.254;11.454;2022-09-06T17:33:03;7.50;;;2.67;;
40955;SDS011;26687;48.254;11.454;2022-09-06T17:36:09;7.93;;;2.65;;
40955;SDS011;26687;48.254;11.454;2022-09-06T17:39:11;5.60;;;2.50;;
40955;SDS011;26687;48.254;11.454;2022-09-06T17:42:16;6.30;;;2.22;;
40955;SDS011;26687;48.254;11.454;2022-09-06T17:45:17;6.68;;;2.78;;
40955;SDS011;26687;48.254;11.454;2022-09-06T17:48:17;8.27;;;2.50;;
40955;SDS011;26687;48.254;11.454;2022-09-06T17:51:17;5.23;;;2.40;;
40955;SDS011;26687;48.254;11.454;2022-09-06T17:54:18;6.43;;;2.13;;
40955;SDS011;26687;48.254;11.454;2022-09-06T17:57:18;5.93;;;2.60;;
40955;SDS011;26687;48.254;11.454;2022-09-06T18:00:18;5.63;;;2.53;;
40955;SDS011;26687;48.254;11.454;2022-09-06T18:03:18;5.80;;;2.53;;
40955;SDS011;26687;48.254;11.454;2022-09-06T18:06:19;5.15;;;2.20;;
40955;SDS011;26687;48.254;11.454;2022-09-06T18:09:21;6.38;;;2.30;;
40955;SDS011;26687;48.254;11.454;2022-09-06T18:12:21;4.28;;;2.40;;
40955;SDS011;26687;48.254;11.454;2022-09-06T18:15:23;5.13;;;2.63;;
40955;SDS011;26687;48.254;11.454;2022-09-06T18:18:23;5.63;;;2.75;;
40955;SDS011;26687;48.254;11.454;2022-09-06T18:21:23;6.73;;;3.30;;
40955;SDS011;26687;48.254;11.454;2022-09-06T18:24:24;6.63;;;2.67;;
40955;SDS011;26687;48.254;11.454;2022-09-06T18:27:24;4.63;;;2.58;;
40955;SDS011;26687;48.254;11.454;2022-09-06T18:30:25;8.85;;;2.80;;
40955;SDS011;26687;48.254;11.454;2022-09-06T18:33:25;6.75;;;2.75;;
40955;SDS011;26687;48.254;11.454;2022-09-06T18:36:25;8.70;;;3.38;;
40955;SDS011;26687;48.254;11.454;2022-09-06T18:39:26;7.57;;;2.77;;
40955;SDS011;26687;48.254;11.454;2022-09-06T18:42:26;7.63;;;3.03;;
40955;SDS011;26687;48.254;11.454;2022-09-06T18:45:26;8.38;;;3.53;;
40955;SDS011;26687;48.254;11.454;2022-09-06T18:48:27;12.90;;;5.45;;
40955;SDS011;26687;48.254;11.454;2022-09-06T18:51:27;11.20;;;5.75;;
40955;SDS011;26687;48.254;11.454;2022-09-06T18:54:28;9.50;;;4.87;;
40955;SDS011;26687;48.254;11.454;2022-09-06T18:57:28;7.85;;;4.50;;
40955;SDS011;26687;48.254;11.454;2022-09-06T19:00:29;10.05;;;4.80;;
40955;SDS011;26687;48.254;11.454;2022-09-06T19:03:30;8.35;;;4.43;;
40955;SDS011;26687;48.254;11.454;2022-09-06T19:06:31;7.38;;;4.68;;
40955;SDS011;26687;48.254;11.454;2022-09-06T19:09:31;4.95;;;4.32;;
40955;SDS011;26687;48.254;11.454;2022-09-06T19:12:31;6.97;;;4.40;;
40955;SDS011;26687;48.254;11.454;2022-09-06T19:15:31;8.38;;;4.00;;
40955;SDS011;26687;48.254;11.454;2022-09-06T19:18:32;8.77;;;4.10;;
40955;SDS011;26687;48.254;11.454;2022-09-06T19:21:33;7.40;;;3.80;;
40955;SDS011;26687;48.254;11.454;2022-09-06T19:24:33;8.23;;;3.93;;
40955;SDS011;26687;48.254;11.454;2022-09-06T19:27:33;9.93;;;4.60;;